Time;durP1;ratioP1;P1;durP2;ratioP2;P2;SDS_P1;SDS_P2;PMS_P1;PMS_P2;Temp;Humidity;BMP_temperature;BMP_pressure;BME280_temperature;BME280_humidity;BME280_pressure;Samples;Min_cycle;Max_cycle;Signal;HPM_P1;HPM_P2
2022/06/20 00:01:24;;;;;;;8.27;1.90;;;;;;;;;;4974967;28;20208;-61
2022/06/20 00:03:51;;;;;;;9.20;1.50;;;;;;;;;;4992049;28;20042;-61
2022/06/20 00:06:19;;;;;;;11.20;3.07;;;;;;;;;;4992167;28;20432;-61
2022/06/20 00:08:45;;;;;;;8.43;1.90;;;;;;;;;;4992213;28;20054;-61
2022/06/20 00:11:16;;;;;;;6.27;1.70;;;;;;;;;;4992314;28;20801;-61
2022/06/20 00:13:44;;;;;;;7.27;1.83;;;;;;;;;;4991861;28;20069;-62
2022/06/20 00:16:12;;;;;;;11.80;1.87;;;;;;;;;;4991548;28;20129;-61
2022/06/20 00:18:39;;;;;;;18.50;2.40;;;;;;;;;;4991641;28;20540;-62
2022/06/20 00:21:05;;;;;;;8.83;2.13;;;;;;;;;;4991685;28;20049;-61
2022/06/20 00:23:31;;;;;;;8.77;2.10;;;;;;;;;;4991505;28;20054;-62
2022/06/20 00:25:57;;;;;;;8.40;1.73;;;;;;;;;;4991429;28;20046;-62
2022/06/20 00:28:23;;;;;;;7.97;1.90;;;;;;;;;;4991324;28;20046;-62
2022/06/20 00:30:49;;;;;;;9.07;2.07;;;;;;;;;;4991558;28;20050;-61
2022/06/20 00:33:15;;;;;;;9.67;2.40;;;;;;;;;;4991500;28;20046;-62
2022/06/20 00:35:41;;;;;;;5.33;1.97;;;;;;;;;;4991190;28;20046;-62
2022/06/20 00:38:11;;;;;;;6.27;2.07;;;;;;;;;;4991516;28;20742;-62
2022/06/20 00:40:40;;;;;;;7.47;2.50;;;;;;;;;;4991549;28;20089;-62
2022/06/20 00:43:07;;;;;;;7.17;2.30;;;;;;;;;;4991535;28;20050;-62
2022/06/20 00:45:37;;;;;;;11.83;2.37;;;;;;;;;;4991106;28;20535;-62
2022/06/20 00:48:06;;;;;;;10.97;2.30;;;;;;;;;;4990681;28;20629;-62
2022/06/20 00:50:33;;;;;;;9.90;2.50;;;;;;;;;;4991393;28;20042;-61
2022/06/20 00:53:14;;;;;;;9.17;2.10;;;;;;;;;;4991050;28;20122;-62
2022/06/20 00:55:46;;;;;;;6.23;1.50;;;;;;;;;;4991037;28;20065;-62
2022/06/20 00:58:29;;;;;;;6.73;2.20;;;;;;;;;;4990385;28;20053;-62
2022/06/20 01:00:56;;;;;;;7.90;2.50;;;;;;;;;;4991038;28;20057;-61
2022/06/20 01:03:23;;;;;;;12.07;2.60;;;;;;;;;;4991081;28;20042;-64
2022/06/20 01:05:52;;;;;;;9.50;2.83;;;;;;;;;;4990817;28;20129;-62
2022/06/20 01:08:21;;;;;;;14.73;2.90;;;;;;;;;;4991077;28;20185;-61
2022/06/20 01:10:50;;;;;;;10.10;2.47;;;;;;;;;;4990872;28;20053;-62
2022/06/20 01:13:18;;;;;;;11.37;2.83;;;;;;;;;;4989705;28;20046;-62
2022/06/20 01:15:45;;;;;;;11.43;2.80;;;;;;;;;;4990459;28;20050;-62
2022/06/20 01:18:16;;;;;;;12.80;2.53;;;;;;;;;;4991044;28;20096;-62
2022/06/20 01:20:42;;;;;;;6.07;2.13;;;;;;;;;;4990880;28;20050;-61
2022/06/20 01:23:17;;;;;;;8.30;2.40;;;;;;;;;;4990736;28;20043;-62
2022/06/20 01:25:48;;;;;;;9.00;2.50;;;;;;;;;;4982371;28;20896;-61
2022/06/20 01:28:20;;;;;;;9.90;2.83;;;;;;;;;;4990702;28;20552;-61
2022/06/20 01:30:47;;;;;;;10.00;2.70;;;;;;;;;;4990561;28;20042;-62
2022/06/20 01:33:15;;;;;;;9.87;3.13;;;;;;;;;;4990214;28;20046;-62
2022/06/20 01:38:28;;;;;;;12.80;3.00;;;;;;;;;;4989422;28;20058;-61
2022/06/20 01:43:39;;;;;;;8.00;2.87;;;;;;;;;;4990081;28;20050;-61
2022/06/20 01:46:11;;;;;;;15.43;3.20;;;;;;;;;;4989414;28;20133;-62
2022/06/20 01:48:39;;;;;;;10.97;3.00;;;;;;;;;;4989663;28;20053;-62
2022/06/20 01:51:15;;;;;;;14.17;2.80;;;;;;;;;;4989045;28;20054;-61
2022/06/20 01:53:43;;;;;;;13.17;3.23;;;;;;;;;;4988095;28;20069;-62
2022/06/20 01:56:10;;;;;;;11.23;2.73;;;;;;;;;;4989036;28;20129;-62
2022/06/20 01:58:38;;;;;;;12.00;3.23;;;;;;;;;;4990177;28;20057;-62
2022/06/20 02:01:04;;;;;;;11.07;2.53;;;;;;;;;;4990004;28;20581;-62
2022/06/20 02:03:33;;;;;;;11.33;3.67;;;;;;;;;;4989859;28;20100;-62
2022/06/20 02:06:00;;;;;;;12.33;2.83;;;;;;;;;;4990037;28;20042;-62
2022/06/20 02:08:26;;;;;;;11.13;2.70;;;;;;;;;;4989934;28;20053;-62
2022/06/20 02:11:00;;;;;;;13.00;3.37;;;;;;;;;;4989835;28;20050;-62
2022/06/20 02:13:26;;;;;;;;;;;;;;;;;;4988892;28;20039;-61
2022/06/20 02:15:52;;;;;;;10.60;3.30;;;;;;;;;;4987705;28;20024;-62
2022/06/20 02:18:19;;;;;;;10.40;3.13;;;;;;;;;;4987520;28;20042;-62
2022/06/20 02:20:48;;;;;;;11.07;3.10;;;;;;;;;;4988681;28;20049;-62
2022/06/20 02:23:16;;;;;;;9.93;3.73;;;;;;;;;;4988240;28;20046;-62
2022/06/20 02:25:44;;;;;;;6.87;2.73;;;;;;;;;;4988921;28;20050;-61
2022/06/20 02:28:12;;;;;;;11.40;3.00;;;;;;;;;;4988381;28;20091;-62
2022/06/20 02:30:39;;;;;;;14.40;3.37;;;;;;;;;;4989331;28;20050;-61
2022/06/20 02:33:09;;;;;;;12.07;2.93;;;;;;;;;;4989137;28;20086;-62
2022/06/20 02:35:35;;;;;;;11.90;3.53;;;;;;;;;;4989070;28;20778;-62
2022/06/20 02:38:02;;;;;;;9.90;4.00;;;;;;;;;;4988479;28;20062;-62
2022/06/20 02:40:29;;;;;;;15.13;3.67;;;;;;;;;;4988890;28;20046;-62
2022/06/20 02:43:11;;;;;;;12.33;4.20;;;;;;;;;;4988634;28;20038;-62
2022/06/20 02:45:39;;;;;;;9.70;4.03;;;;;;;;;;4988358;28;20420;-62
2022/06/20 02:48:06;;;;;;;12.77;4.43;;;;;;;;;;4988966;28;20057;-62
2022/06/20 02:50:37;;;;;;;17.33;4.67;;;;;;;;;;4988904;28;20046;-62
2022/06/20 02:53:10;;;;;;;11.73;4.40;;;;;;;;;;4988445;28;20495;-61
2022/06/20 02:55:36;;;;;;;;;;;;;;;;;;4989654;28;20059;-62
2022/06/20 02:58:07;;;;;;;16.00;5.00;;;;;;;;;;4989201;28;19928;-62
2022/06/20 03:00:36;;;;;;;13.13;4.60;;;;;;;;;;4988637;28;20085;-62
2022/06/20 03:03:04;;;;;;;12.80;5.23;;;;;;;;;;4989278;28;20110;-62
2022/06/20 03:05:33;;;;;;;13.27;4.70;;;;;;;;;;4988981;28;20046;-62
2022/06/20 03:08:00;;;;;;;9.60;5.07;;;;;;;;;;4988706;28;20061;-62
2022/06/20 03:10:34;;;;;;;13.87;5.47;;;;;;;;;;4989055;28;20077;-62
2022/06/20 03:13:01;;;;;;;20.33;5.00;;;;;;;;;;4988670;28;20050;-61
2022/06/20 03:15:27;;;;;;;13.20;5.80;;;;;;;;;;4988720;28;20054;-62
2022/06/20 03:17:57;;;;;;;12.57;5.03;;;;;;;;;;4988807;28;20043;-61
2022/06/20 03:20:25;;;;;;;22.77;5.90;;;;;;;;;;4988279;28;20058;-62
2022/06/20 03:22:57;;;;;;;15.97;5.80;;;;;;;;;;4988472;28;20046;-61
2022/06/20 03:25:23;;;;;;;16.33;5.80;;;;;;;;;;4988511;28;20125;-62
2022/06/20 03:27:53;;;;;;;9.10;5.93;;;;;;;;;;4987472;28;20390;-62
2022/06/20 03:30:22;;;;;;;12.07;5.83;;;;;;;;;;4988715;28;20050;-61
2022/06/20 03:32:48;;;;;;;17.53;6.23;;;;;;;;;;4988310;28;20134;-62
2022/06/20 03:35:17;;;;;;;13.60;5.83;;;;;;;;;;4988025;28;20445;-61
2022/06/20 03:37:43;;;;;;;17.13;6.33;;;;;;;;;;4991604;28;20081;-62
2022/06/20 03:40:11;;;;;;;19.53;7.23;;;;;;;;;;4992032;28;20385;-61
2022/06/20 03:42:40;;;;;;;12.07;5.60;;;;;;;;;;4992328;28;20046;-62
2022/06/20 03:45:07;;;;;;;18.00;6.73;;;;;;;;;;4991819;28;20599;-61
2022/06/20 03:47:35;;;;;;;19.50;7.33;;;;;;;;;;4990767;28;20457;-61
2022/06/20 03:50:20;;;;;;;19.73;6.90;;;;;;;;;;4991472;28;20054;-61
2022/06/20 03:53:08;;;;;;;12.43;6.97;;;;;;;;;;4991797;28;20042;-62
2022/06/20 03:55:40;;;;;;;22.33;6.60;;;;;;;;;;4992611;28;20104;-61
2022/06/20 03:58:14;;;;;;;23.43;6.77;;;;;;;;;;4991867;28;20065;-62
2022/06/20 04:00:48;;;;;;;12.83;7.20;;;;;;;;;;4992454;28;20073;-62
2022/06/20 04:06:31;;;;;;;26.40;9.57;;;;;;;;;;4991475;28;20046;-62
2022/06/20 04:12:07;;;;;;;16.15;7.88;;;;;;;;;;4991391;28;20144;-62
2022/06/20 04:14:46;;;;;;;20.17;8.00;;;;;;;;;;4990955;28;20086;-61
2022/06/20 04:20:02;;;;;;;17.17;8.03;;;;;;;;;;4991341;28;20050;-61
2022/06/20 04:22:33;;;;;;;12.33;4.87;;;;;;;;;;4992024;28;20042;-61
2022/06/20 04:28:24;;;;;;;17.40;7.60;;;;;;;;;;4991315;28;20065;-61
2022/06/20 04:34:17;;;;;;;12.57;6.77;;;;;;;;;;4990647;28;20050;-61
2022/06/20 04:36:44;;;;;;;12.97;6.87;;;;;;;;;;4991365;28;20046;-61
2022/06/20 04:43:01;;;;;;;14.10;7.67;;;;;;;;;;4991061;28;20046;-61
2022/06/20 04:45:34;;;;;;;14.70;5.70;;;;;;;;;;4990960;28;20535;-61
2022/06/20 04:48:07;;;;;;;14.38;6.60;;;;;;;;;;4990414;28;20055;-61
2022/06/20 04:50:34;;;;;;;14.93;5.93;;;;;;;;;;4990694;28;20054;-61
2022/06/20 04:53:05;;;;;;;12.93;5.87;;;;;;;;;;4990739;28;20043;-61
2022/06/20 04:55:35;;;;;;;11.23;5.80;;;;;;;;;;4991095;28;20055;-61
2022/06/20 04:58:34;;;;;;;14.43;5.30;;;;;;;;;;4990252;28;20077;-61
2022/06/20 05:01:00;;;;;;;6.70;4.30;;;;;;;;;;4990725;28;20050;-61
2022/06/20 05:04:03;;;;;;;10.70;4.37;;;;;;;;;;4990756;28;20103;-61
2022/06/20 05:06:31;;;;;;;13.30;4.50;;;;;;;;;;4990104;28;20398;-62
2022/06/20 05:09:08;;;;;;;8.97;4.17;;;;;;;;;;4990641;28;20053;-61
2022/06/20 05:11:36;;;;;;;17.87;5.37;;;;;;;;;;4989838;28;20057;-61
2022/06/20 05:27:42;;;;;;;9.30;3.53;;;;;;;;;;4989512;28;20051;-62
2022/06/20 05:31:02;;;;;;;9.27;4.13;;;;;;;;;;4990193;28;20074;-62
2022/06/20 05:46:55;;;;;;;13.27;4.07;;;;;;;;;;4989550;28;20111;-62
2022/06/20 05:49:29;;;;;;;10.10;3.63;;;;;;;;;;4990084;28;20056;-62
2022/06/20 05:51:59;;;;;;;11.60;3.47;;;;;;;;;;4989786;28;20046;-62
2022/06/20 05:54:30;;;;;;;9.07;3.80;;;;;;;;;;4988129;28;20059;-62
2022/06/20 06:00:21;;;;;;;10.57;3.00;;;;;;;;;;4989630;28;20057;-62
2022/06/20 06:03:12;;;;;;;12.70;2.90;;;;;;;;;;4988893;28;20519;-62
2022/06/20 06:05:57;;;;;;;11.80;4.20;;;;;;;;;;4989067;28;20072;-62
2022/06/20 06:09:05;;;;;;;12.37;3.73;;;;;;;;;;4989503;28;20057;-62
2022/06/20 06:12:33;;;;;;;10.50;3.50;;;;;;;;;;4929358;29;20098;-62
2022/06/20 06:18:42;;;;;;;13.97;3.17;;;;;;;;;;4929237;29;20051;-62
2022/06/20 06:21:31;;;;;;;11.27;3.10;;;;;;;;;;4957096;28;20046;-62
2022/06/20 06:24:05;;;;;;;11.67;3.80;;;;;;;;;;4987076;28;20566;-62
2022/06/20 06:30:14;;;;;;;9.70;3.20;;;;;;;;;;4986992;28;20053;-62
2022/06/20 06:36:37;;;;;;;;;;;;;;;;;;;;;
2022/06/20 06:43:13;;;;;;;12.97;3.93;;;;;;;;;;4956262;28;20117;-62
2022/06/20 06:49:35;;;;;;;12.80;4.30;;;;;;;;;;4988540;28;20061;-62
2022/06/20 06:55:24;;;;;;;11.90;3.53;;;;;;;;;;4982414;28;20067;-62
2022/06/20 06:57:53;;;;;;;11.97;4.20;;;;;;;;;;4969343;28;20059;-62
2022/06/20 07:07:33;;;;;;;9.40;4.07;;;;;;;;;;4969513;28;20113;-62
2022/06/20 07:10:01;;;;;;;9.73;2.67;;;;;;;;;;4970064;28;20386;-62
2022/06/20 07:12:51;;;;;;;8.67;2.37;;;;;;;;;;4973263;28;20481;-62
2022/06/20 07:15:41;;;;;;;11.73;2.70;;;;;;;;;;4973112;28;20670;-62
2022/06/20 07:21:31;;;;;;;9.27;2.67;;;;;;;;;;4973449;28;20041;-62
2022/06/20 07:23:57;;;;;;;11.23;2.73;;;;;;;;;;4973358;28;20138;-62
2022/06/20 07:26:29;;;;;;;7.50;2.73;;;;;;;;;;4973099;28;20150;-62
2022/06/20 07:32:09;;;;;;;7.27;1.93;;;;;;;;;;4972914;28;20043;-61
2022/06/20 07:34:38;;;;;;;12.50;3.17;;;;;;;;;;4973268;28;20105;-62
2022/06/20 07:37:11;;;;;;;7.47;1.93;;;;;;;;;;4973009;28;20051;-61
2022/06/20 07:39:56;;;;;;;9.10;2.37;;;;;;;;;;4973245;28;20634;-62
2022/06/20 07:42:34;;;;;;;7.43;2.07;;;;;;;;;;4973126;28;20141;-62
2022/06/20 07:48:47;;;;;;;5.53;2.40;;;;;;;;;;4969248;28;20062;-62
2022/06/20 07:51:19;;;;;;;7.00;1.83;;;;;;;;;;4972762;28;20485;-62
2022/06/20 07:53:50;;;;;;;6.70;2.30;;;;;;;;;;4938175;28;20715;-62
2022/06/20 07:59:47;;;;;;;3.60;1.33;;;;;;;;;;4978970;28;20779;-62
2022/06/20 08:02:21;;;;;;;6.90;1.80;;;;;;;;;;4972387;28;20054;-62
2022/06/20 08:04:50;;;;;;;7.63;1.90;;;;;;;;;;4972041;28;20146;-62
2022/06/20 08:07:21;;;;;;;5.50;2.07;;;;;;;;;;4972497;28;20042;-62
2022/06/20 08:09:53;;;;;;;6.00;2.07;;;;;;;;;;4972134;28;20050;-62
2022/06/20 08:12:48;;;;;;;8.07;2.78;;;;;;;;;;4972271;28;20146;-62
2022/06/20 08:15:24;;;;;;;5.97;1.80;;;;;;;;;;4971940;28;20035;-59
2022/06/20 08:17:51;;;;;;;6.50;2.43;;;;;;;;;;4972066;28;20481;-60
2022/06/20 08:20:17;;;;;;;9.57;2.57;;;;;;;;;;4972157;28;20118;-60
2022/06/20 08:23:09;;;;;;;4.57;1.80;;;;;;;;;;4971395;28;20090;-60
2022/06/20 08:25:53;;;;;;;8.80;2.00;;;;;;;;;;4963297;28;20059;-59
2022/06/20 08:28:24;;;;;;;9.17;2.10;;;;;;;;;;4971927;28;20053;-60
2022/06/20 08:30:54;;;;;;;7.47;2.00;;;;;;;;;;4986343;28;20051;-60
2022/06/20 08:33:29;;;;;;;8.03;2.17;;;;;;;;;;4971648;28;20122;-62
2022/06/20 08:36:04;;;;;;;9.40;1.93;;;;;;;;;;4971997;28;20082;-60
2022/06/20 08:38:40;;;;;;;9.03;2.07;;;;;;;;;;4972362;28;20054;-62
2022/06/20 08:41:18;;;;;;;14.83;2.53;;;;;;;;;;4971697;28;20050;-61
2022/06/20 08:44:04;;;;;;;7.57;2.37;;;;;;;;;;4972005;28;20074;-60
2022/06/20 08:46:39;;;;;;;7.13;1.60;;;;;;;;;;4971591;28;20051;-59
2022/06/20 08:49:08;;;;;;;6.80;1.80;;;;;;;;;;4971512;28;20046;-60
2022/06/20 08:52:08;;;;;;;5.23;1.70;;;;;;;;;;4971768;28;20123;-61
2022/06/20 09:01:28;;;;;;;5.43;1.83;;;;;;;;;;4974346;28;20089;-61
2022/06/20 09:04:00;;;;;;;8.13;1.77;;;;;;;;;;4971577;28;20058;-61
2022/06/20 09:06:59;;;;;;;6.55;1.63;;;;;;;;;;4971395;28;20051;-60
2022/06/20 09:09:43;;;;;;;6.22;1.63;;;;;;;;;;4948906;28;20094;-62
2022/06/20 09:12:15;;;;;;;7.40;2.20;;;;;;;;;;4971015;28;20452;-62
2022/06/20 09:14:44;;;;;;;4.23;1.10;;;;;;;;;;4971401;28;20059;-62
2022/06/20 09:17:19;;;;;;;5.97;1.60;;;;;;;;;;4971332;28;20383;-62
2022/06/20 09:20:04;;;;;;;4.00;1.20;;;;;;;;;;4971030;28;20133;-62
2022/06/20 09:22:38;;;;;;;5.07;1.50;;;;;;;;;;4971312;28;20069;-61
2022/06/20 09:25:10;;;;;;;6.83;1.33;;;;;;;;;;4971143;28;20101;-62
2022/06/20 09:27:39;;;;;;;4.93;1.10;;;;;;;;;;4971145;28;20054;-62
2022/06/20 09:30:07;;;;;;;1.77;0.77;;;;;;;;;;4970620;28;20124;-62
2022/06/20 09:32:54;;;;;;;3.23;1.47;;;;;;;;;;4971095;28;20058;-61
2022/06/20 09:36:02;;;;;;;2.90;1.10;;;;;;;;;;4970447;28;20129;-62
2022/06/20 09:38:28;;;;;;;4.13;1.05;;;;;;;;;;4919196;29;20058;-61
2022/06/20 09:41:12;;;;;;;5.25;1.40;;;;;;;;;;4905166;29;20498;-61
2022/06/20 09:43:47;;;;;;;3.05;1.38;;;;;;;;;;4944641;28;20055;-62
2022/06/20 09:46:19;;;;;;;4.32;1.23;;;;;;;;;;4970103;28;20126;-62
2022/06/20 09:48:45;;;;;;;7.47;1.65;;;;;;;;;;4969883;28;20050;-61
2022/06/20 09:51:16;;;;;;;4.05;1.60;;;;;;;;;;4970156;28;20049;-61
2022/06/20 09:53:59;;;;;;;5.57;1.40;;;;;;;;;;4969914;28;20602;-61
2022/06/20 09:56:41;;;;;;;4.63;1.50;;;;;;;;;;4968904;28;20561;-61
2022/06/20 09:59:13;;;;;;;5.95;1.40;;;;;;;;;;4968877;28;20073;-62
2022/06/20 10:01:39;;;;;;;3.95;1.20;;;;;;;;;;4967968;28;20054;-62
2022/06/20 10:04:11;;;;;;;3.22;1.05;;;;;;;;;;4970460;28;20394;-62
2022/06/20 10:06:37;;;;;;;5.30;0.93;;;;;;;;;;4970608;28;20291;-62
2022/06/20 10:09:18;;;;;;;3.95;1.30;;;;;;;;;;4968958;28;20071;-62
2022/06/20 10:11:57;;;;;;;4.10;1.08;;;;;;;;;;4970305;28;20058;-62
2022/06/20 10:14:33;;;;;;;4.78;1.08;;;;;;;;;;4970182;28;20448;-62
2022/06/20 10:17:12;;;;;;;3.47;1.10;;;;;;;;;;4970083;28;20050;-62
2022/06/20 10:19:54;;;;;;;7.13;1.60;;;;;;;;;;4969888;28;20042;-62
2022/06/20 10:22:29;;;;;;;5.57;1.10;;;;;;;;;;4969882;28;20513;-62
2022/06/20 10:25:15;;;;;;;5.80;1.38;;;;;;;;;;4969692;28;20580;-62
2022/06/20 10:27:46;;;;;;;10.95;2.58;;;;;;;;;;4969430;28;20117;-62
2022/06/20 10:30:18;;;;;;;6.78;1.48;;;;;;;;;;4969735;28;20535;-62
2022/06/20 10:33:08;;;;;;;4.05;1.30;;;;;;;;;;4969964;28;20535;-62
2022/06/20 10:35:44;;;;;;;6.35;1.67;;;;;;;;;;4969960;28;20051;-61
2022/06/20 10:38:14;;;;;;;3.88;1.48;;;;;;;;;;4969230;28;20102;-61
2022/06/20 10:40:50;;;;;;;6.38;2.08;;;;;;;;;;4969736;28;20047;-62
2022/06/20 10:43:16;;;;;;;7.22;1.95;;;;;;;;;;4969911;28;20101;-61
2022/06/20 10:45:46;;;;;;;4.47;1.80;;;;;;;;;;4969527;28;20050;-61
2022/06/20 10:48:22;;;;;;;3.95;1.27;;;;;;;;;;4969637;28;20058;-61
2022/06/20 10:50:56;;;;;;;8.07;1.38;;;;;;;;;;4969366;28;20050;-61
2022/06/20 10:53:48;;;;;;;4.85;1.50;;;;;;;;;;4969721;28;20428;-61
2022/06/20 10:56:28;;;;;;;5.57;1.38;;;;;;;;;;4966394;28;20469;-61
2022/06/20 10:58:54;;;;;;;5.40;1.35;;;;;;;;;;4969893;28;20501;-61
2022/06/20 11:01:25;;;;;;;5.45;1.45;;;;;;;;;;4985682;28;20054;-61
2022/06/20 11:04:12;;;;;;;5.95;1.63;;;;;;;;;;4988724;28;20056;-62
2022/06/20 11:06:38;;;;;;;5.82;1.38;;;;;;;;;;4989227;28;20141;-62
2022/06/20 11:09:22;;;;;;;3.70;1.15;;;;;;;;;;4988674;28;20196;-61
2022/06/20 11:11:58;;;;;;;4.78;1.80;;;;;;;;;;4987879;28;20045;-61
2022/06/20 11:14:32;;;;;;;3.25;1.00;;;;;;;;;;4988503;28;20042;-61
2022/06/20 11:17:08;;;;;;;5.38;1.52;;;;;;;;;;4988388;28;20046;-62
2022/06/20 11:19:34;;;;;;;7.03;1.73;;;;;;;;;;4988819;28;20127;-61
2022/06/20 11:22:19;;;;;;;4.55;1.67;;;;;;;;;;4988793;28;20049;-61
2022/06/20 11:25:00;;;;;;;4.53;1.83;;;;;;;;;;4988296;28;20456;-61
2022/06/20 11:27:36;;;;;;;6.90;1.52;;;;;;;;;;4988426;28;20043;-61
2022/06/20 11:30:07;;;;;;;4.10;1.50;;;;;;;;;;4988336;28;20051;-61
2022/06/20 11:32:39;;;;;;;5.70;1.48;;;;;;;;;;4988446;28;20050;-62
2022/06/20 11:35:17;;;;;;;5.97;2.00;;;;;;;;;;4988306;28;20100;-62
2022/06/20 11:37:56;;;;;;;4.82;1.67;;;;;;;;;;4988129;28;20061;-62
2022/06/20 11:40:37;;;;;;;7.82;1.75;;;;;;;;;;4989028;28;20042;-61
2022/06/20 11:43:38;;;;;;;6.03;1.80;;;;;;;;;;4988485;28;20058;-62
2022/06/20 11:46:15;;;;;;;5.93;1.63;;;;;;;;;;4909358;29;20051;-62
2022/06/20 11:48:53;;;;;;;5.60;1.75;;;;;;;;;;4977733;28;20061;-61
2022/06/20 11:51:19;;;;;;;5.40;1.45;;;;;;;;;;4986755;28;20587;-61
2022/06/20 11:53:59;;;;;;;9.90;2.05;;;;;;;;;;4986977;28;20046;-61
2022/06/20 11:56:39;;;;;;;6.32;1.73;;;;;;;;;;4987813;28;20057;-61
2022/06/20 11:59:05;;;;;;;5.57;1.70;;;;;;;;;;4991369;28;20054;-61
2022/06/20 12:01:53;;;;;;;3.90;1.42;;;;;;;;;;4990853;28;20427;-62
2022/06/20 12:04:25;;;;;;;6.95;2.00;;;;;;;;;;4990938;28;20133;-62
2022/06/20 12:07:14;;;;;;;3.78;1.17;;;;;;;;;;4990836;28;20065;-62
2022/06/20 12:09:52;;;;;;;4.07;1.17;;;;;;;;;;4979612;28;20451;-62
2022/06/20 12:12:24;;;;;;;5.00;1.30;;;;;;;;;;4952992;29;20131;-61
2022/06/20 12:14:59;;;;;;;5.18;1.35;;;;;;;;;;4953124;28;20055;-62
2022/06/20 12:17:34;;;;;;;4.10;1.38;;;;;;;;;;4952925;29;20406;-62
2022/06/20 12:26:12;;;;;;;3.50;1.02;;;;;;;;;;4979186;28;20576;-61
2022/06/20 12:28:40;;;;;;;5.28;1.50;;;;;;;;;;4978556;28;20520;-61
2022/06/20 12:31:30;;;;;;;4.75;1.15;;;;;;;;;;4982971;28;20066;-61
2022/06/20 12:33:56;;;;;;;4.72;1.30;;;;;;;;;;4965672;28;20564;-61
2022/06/20 12:36:41;;;;;;;3.90;1.00;;;;;;;;;;4975760;28;20159;-61
2022/06/20 12:39:11;;;;;;;2.55;1.02;;;;;;;;;;4970465;28;20047;-61
2022/06/20 12:41:40;;;;;;;2.25;0.90;;;;;;;;;;4971017;28;20126;-61
2022/06/20 12:44:24;;;;;;;7.75;1.33;;;;;;;;;;4971712;28;20568;-61
2022/06/20 12:46:59;;;;;;;2.88;0.98;;;;;;;;;;4982870;28;20420;-62
2022/06/20 12:49:25;;;;;;;;;;;;;;;;;;4991365;28;20472;-61
2022/06/20 12:52:10;;;;;;;3.50;0.98;;;;;;;;;;4991388;28;19976;-61
2022/06/20 12:54:39;;;;;;;9.20;1.90;;;;;;;;;;4971480;28;20527;-61
2022/06/20 12:57:09;;;;;;;4.75;1.10;;;;;;;;;;4970688;28;20051;-61
2022/06/20 12:59:54;;;;;;;2.78;1.02;;;;;;;;;;4985174;28;20042;-62
2022/06/20 13:02:39;;;;;;;4.47;1.63;;;;;;;;;;4991011;28;20061;-61
2022/06/20 13:05:22;;;;;;;5.35;1.50;;;;;;;;;;4991088;28;20437;-61
2022/06/20 13:07:56;;;;;;;3.67;1.17;;;;;;;;;;4990721;28;20054;-62
2022/06/20 13:10:25;;;;;;;5.53;1.30;;;;;;;;;;4990642;28;20133;-62
2022/06/20 13:12:51;;;;;;;3.65;1.10;;;;;;;;;;4990932;28;20142;-62
2022/06/20 13:15:35;;;;;;;3.95;1.20;;;;;;;;;;4990727;28;20133;-61
2022/06/20 13:18:08;;;;;;;4.90;1.35;;;;;;;;;;4990950;28;20125;-61
2022/06/20 13:20:45;;;;;;;5.80;1.38;;;;;;;;;;4990980;28;20547;-61
2022/06/20 13:23:20;;;;;;;5.40;1.48;;;;;;;;;;4990630;28;20137;-61
2022/06/20 13:25:49;;;;;;;5.10;1.40;;;;;;;;;;4990979;28;20130;-61
2022/06/20 13:28:32;;;;;;;4.57;1.23;;;;;;;;;;4990708;28;20366;-61
2022/06/20 13:31:13;;;;;;;4.28;1.33;;;;;;;;;;4990711;28;20096;-61
2022/06/20 13:33:57;;;;;;;4.72;1.73;;;;;;;;;;4990261;28;20101;-61
2022/06/20 13:36:41;;;;;;;5.05;1.63;;;;;;;;;;4990659;28;20077;-61
2022/06/20 13:39:23;;;;;;;3.67;1.35;;;;;;;;;;4990105;28;20050;-61
2022/06/20 13:42:03;;;;;;;3.38;1.35;;;;;;;;;;4989954;28;20552;-61
2022/06/20 13:44:49;;;;;;;3.17;0.98;;;;;;;;;;4990552;28;20073;-61
2022/06/20 13:47:22;;;;;;;5.28;1.58;;;;;;;;;;4990173;28;20050;-61
2022/06/20 13:50:07;;;;;;;6.50;1.60;;;;;;;;;;4989926;28;20046;-61
2022/06/20 13:52:46;;;;;;;5.35;1.40;;;;;;;;;;4990431;28;20054;-61
2022/06/20 13:55:19;;;;;;;4.03;1.30;;;;;;;;;;4990129;28;20047;-62
2022/06/20 13:58:04;;;;;;;4.00;1.48;;;;;;;;;;4989926;28;20512;-62
2022/06/20 14:00:32;;;;;;;7.93;1.40;;;;;;;;;;4989853;28;20065;-62
2022/06/20 14:03:18;;;;;;;2.67;1.10;;;;;;;;;;4990079;28;20489;-62
2022/06/20 14:05:45;;;;;;;7.10;1.15;;;;;;;;;;4990316;28;20412;-61
2022/06/20 14:08:19;;;;;;;4.35;1.02;;;;;;;;;;4989652;28;20061;-62
2022/06/20 14:11:06;;;;;;;4.45;1.35;;;;;;;;;;4990018;28;20055;-62
2022/06/20 14:13:32;;;;;;;2.88;1.13;;;;;;;;;;4989769;28;20441;-62
2022/06/20 14:16:15;;;;;;;6.85;1.20;;;;;;;;;;4989557;28;20133;-62
2022/06/20 14:18:46;;;;;;;2.40;1.10;;;;;;;;;;4989694;28;20057;-62
2022/06/20 14:21:12;;;;;;;6.53;1.08;;;;;;;;;;4989024;28;20050;-62
2022/06/20 14:23:39;;;;;;;9.48;2.17;;;;;;;;;;4989152;28;20509;-62
2022/06/20 14:26:08;;;;;;;2.35;1.00;;;;;;;;;;4989467;28;20096;-62
2022/06/20 14:28:37;;;;;;;5.22;0.90;;;;;;;;;;4989709;28;20050;-62
2022/06/20 14:31:16;;;;;;;3.92;1.08;;;;;;;;;;4989066;28;20053;-62
2022/06/20 14:33:42;;;;;;;5.38;1.55;;;;;;;;;;4989568;28;20042;-62
2022/06/20 14:36:12;;;;;;;3.20;1.08;;;;;;;;;;4989282;28;20048;-62
2022/06/20 14:38:46;;;;;;;4.82;1.20;;;;;;;;;;4989751;28;20077;-62
2022/06/20 14:44:01;;;;;;;4.13;1.52;;;;;;;;;;4988932;28;20500;-62
2022/06/20 14:46:45;;;;;;;3.25;1.00;;;;;;;;;;4989510;28;20038;-62
2022/06/20 14:49:17;;;;;;;3.85;1.33;;;;;;;;;;4989196;28;20055;-62
2022/06/20 14:51:50;;;;;;;3.17;0.98;;;;;;;;;;4989351;28;20046;-62
2022/06/20 14:54:34;;;;;;;3.45;1.10;;;;;;;;;;4989169;28;20058;-62
2022/06/20 14:57:06;;;;;;;4.80;1.63;;;;;;;;;;4989343;28;20054;-62
2022/06/20 14:59:32;;;;;;;2.85;1.02;;;;;;;;;;4980099;28;20432;-62
2022/06/20 15:02:17;;;;;;;4.13;1.30;;;;;;;;;;4969136;28;20051;-62
2022/06/20 15:04:46;;;;;;;6.63;1.40;;;;;;;;;;4968562;28;20090;-62
2022/06/20 15:07:24;;;;;;;3.88;1.10;;;;;;;;;;4966517;28;20168;-62
2022/06/20 15:09:55;;;;;;;4.00;0.85;;;;;;;;;;4968545;28;20043;-62
2022/06/20 15:12:39;;;;;;;3.08;1.00;;;;;;;;;;4968836;28;20049;-62
2022/06/20 15:15:18;;;;;;;5.55;1.10;;;;;;;;;;4967505;28;20132;-62
2022/06/20 15:18:03;;;;;;;2.25;1.00;;;;;;;;;;4968612;28;20062;-62
2022/06/20 15:20:31;;;;;;;2.67;0.88;;;;;;;;;;4970047;28;20043;-62
2022/06/20 15:23:04;;;;;;;2.67;1.13;;;;;;;;;;4969552;28;20043;-62
2022/06/20 15:25:51;;;;;;;7.35;1.30;;;;;;;;;;4966640;28;20199;-62
2022/06/20 15:28:22;;;;;;;3.17;1.08;;;;;;;;;;4968643;28;20043;-62
2022/06/20 15:30:55;;;;;;;2.10;0.93;;;;;;;;;;4968880;28;20081;-62
2022/06/20 15:33:33;;;;;;;1.98;0.85;;;;;;;;;;4971479;28;20468;-62
2022/06/20 15:36:18;;;;;;;4.90;1.00;;;;;;;;;;4971631;28;20115;-62
2022/06/20 15:39:02;;;;;;;2.88;0.75;;;;;;;;;;4972088;28;20122;-62
2022/06/20 15:44:21;;;;;;;4.10;1.48;;;;;;;;;;4956942;28;20098;-62
2022/06/20 15:47:06;;;;;;;4.80;1.30;;;;;;;;;;4971790;28;20527;-62
2022/06/20 15:49:37;;;;;;;6.40;1.25;;;;;;;;;;4967528;28;20382;-62
2022/06/20 15:52:06;;;;;;;4.03;1.67;;;;;;;;;;4973174;28;20205;-61
2022/06/20 15:54:50;;;;;;;4.63;1.50;;;;;;;;;;4972611;28;20054;-63
2022/06/20 15:57:22;;;;;;;3.53;1.60;;;;;;;;;;4972932;28;20043;-62
2022/06/20 16:00:13;;;;;;;3.08;1.13;;;;;;;;;;4976527;28;20493;-61
2022/06/20 16:02:50;;;;;;;5.95;1.30;;;;;;;;;;4991953;28;20065;-62
2022/06/20 16:05:24;;;;;;;4.55;1.73;;;;;;;;;;4991886;28;20042;-62
2022/06/20 16:08:09;;;;;;;2.55;1.20;;;;;;;;;;4990211;28;20045;-62
2022/06/20 16:10:47;;;;;;;7.03;1.52;;;;;;;;;;4990407;28;20056;-62
2022/06/20 16:13:15;;;;;;;3.70;1.27;;;;;;;;;;4990664;28;20052;-62
2022/06/20 16:15:43;;;;;;;4.50;1.25;;;;;;;;;;4990737;28;20093;-61
2022/06/20 16:18:14;;;;;;;4.45;1.08;;;;;;;;;;4990963;28;20624;-62
2022/06/20 16:20:42;;;;;;;3.22;1.20;;;;;;;;;;4990954;28;20049;-62
2022/06/20 16:23:08;;;;;;;6.50;1.55;;;;;;;;;;4989886;28;21336;-62
2022/06/20 16:25:34;;;;;;;2.47;0.85;;;;;;;;;;4990035;28;20038;-62
2022/06/20 16:28:24;;;;;;;5.00;1.00;;;;;;;;;;4989687;28;20058;-62
2022/06/20 16:31:05;;;;;;;3.50;0.95;;;;;;;;;;4990476;28;20054;-62
2022/06/20 16:33:39;;;;;;;4.15;1.08;;;;;;;;;;4990662;28;20573;-62
2022/06/20 16:36:20;;;;;;;3.15;0.90;;;;;;;;;;4990012;28;20047;-62
2022/06/20 16:38:46;;;;;;;3.15;1.10;;;;;;;;;;4991560;28;20049;-62
2022/06/20 16:41:18;;;;;;;2.67;1.02;;;;;;;;;;4991111;28;20065;-62
2022/06/20 16:43:53;;;;;;;2.80;1.05;;;;;;;;;;4990656;28;20053;-62
2022/06/20 16:46:28;;;;;;;3.70;1.20;;;;;;;;;;4991076;28;20042;-62
2022/06/20 16:49:06;;;;;;;3.88;1.30;;;;;;;;;;4990931;28;20500;-62
2022/06/20 16:51:35;;;;;;;5.50;1.10;;;;;;;;;;4991279;28;20050;-61
2022/06/20 16:54:04;;;;;;;6.72;1.60;;;;;;;;;;4990309;28;20050;-62
2022/06/20 16:56:35;;;;;;;3.85;1.20;;;;;;;;;;4991063;28;20053;-62
2022/06/20 16:59:18;;;;;;;3.33;1.00;;;;;;;;;;4990995;28;20054;-61
2022/06/20 17:01:51;;;;;;;4.32;1.13;;;;;;;;;;4990361;28;20416;-61
2022/06/20 17:07:33;;;;;;;4.78;1.38;;;;;;;;;;4990676;28;20054;-62
2022/06/20 17:10:17;;;;;;;8.18;1.58;;;;;;;;;;4990662;28;20042;-61
2022/06/20 17:13:02;;;;;;;4.88;1.50;;;;;;;;;;4990294;28;20531;-61
2022/06/20 17:15:39;;;;;;;4.57;1.35;;;;;;;;;;4990839;28;20085;-61
2022/06/20 17:18:17;;;;;;;3.63;1.30;;;;;;;;;;4972895;28;20050;-61
2022/06/20 17:21:05;;;;;;;5.72;1.60;;;;;;;;;;4990074;28;20125;-62
2022/06/20 17:23:39;;;;;;;5.38;1.77;;;;;;;;;;4991150;28;20046;-62